createdAt,value
2018-09-09T00:02:04.044Z,7.93
2018-09-09T00:04:51.272Z,8.40
2018-09-09T00:07:21.048Z,7.23
2018-09-09T00:09:53.012Z,8.60
2018-09-09T00:12:25.830Z,8.60
2018-09-09T00:14:58.552Z,8.03
2018-09-09T00:17:28.284Z,8.90
2018-09-09T00:19:57.058Z,7.97
2018-09-09T00:22:26.780Z,8.97
2018-09-09T00:25:19.076Z,8.73
2018-09-09T00:27:51.500Z,9.03
2018-09-09T00:30:29.944Z,8.38
2018-09-09T00:33:00.736Z,7.95
2018-09-09T00:35:31.496Z,9.23
2018-09-09T00:38:05.821Z,8.87
2018-09-09T00:40:41.068Z,9.20
2018-09-09T00:43:09.816Z,8.75
2018-09-09T00:45:42.092Z,8.33
2018-09-09T00:48:15.068Z,8.43
2018-09-09T00:50:49.388Z,8.70
2018-09-09T00:53:30.800Z,8.50
2018-09-09T00:56:02.820Z,8.80
2018-09-09T00:58:36.657Z,8.98
2018-09-09T01:01:29.960Z,8.18
2018-09-09T01:03:59.725Z,9.48
2018-09-09T01:06:48.316Z,8.23
2018-09-09T01:09:17.156Z,7.90
2018-09-09T01:11:45.944Z,8.35
2018-09-09T01:14:18.728Z,8.38
2018-09-09T01:16:49.571Z,9.18
2018-09-09T01:19:18.348Z,8.15
2018-09-09T01:21:47.127Z,7.53
2018-09-09T01:24:27.959Z,8.05
2018-09-09T01:26:57.756Z,8.03
2018-09-09T01:29:34.616Z,7.83
2018-09-09T01:32:09.564Z,9.03
2018-09-09T01:34:41.891Z,8.60
2018-09-09T01:37:11.704Z,7.67
2018-09-09T01:39:42.452Z,8.83
2018-09-09T01:42:11.257Z,8.43
2018-09-09T01:44:50.084Z,8.40
2018-09-09T01:47:19.907Z,7.78
2018-09-09T01:49:52.260Z,8.23
2018-09-09T01:52:26.871Z,9.10
2018-09-09T01:54:56.688Z,8.28
2018-09-09T01:57:38.142Z,9.70
2018-09-09T02:00:06.999Z,7.72
2018-09-09T02:02:43.595Z,7.87
2018-09-09T02:05:18.036Z,7.53
2018-09-09T02:07:52.535Z,8.33
2018-09-09T02:10:40.048Z,7.67
2018-09-09T02:13:32.175Z,8.23
2018-09-09T02:16:11.167Z,7.30
2018-09-09T02:18:40.004Z,8.60
2018-09-09T02:21:18.903Z,8.30
2018-09-09T02:23:49.711Z,7.70
2018-09-09T02:26:24.243Z,7.23
2018-09-09T02:28:53.017Z,6.90
2018-09-09T02:31:28.096Z,6.33
2018-09-09T02:34:02.710Z,6.90
2018-09-09T02:36:31.476Z,7.17
2018-09-09T02:39:09.166Z,6.23
2018-09-09T02:41:41.736Z,5.90
2018-09-09T02:44:15.535Z,6.28
2018-09-09T02:46:45.327Z,6.67
2018-09-09T02:49:16.083Z,7.30
2018-09-09T02:52:05.284Z,6.90
2018-09-09T02:54:36.420Z,7.33
2018-09-09T02:57:09.817Z,7.37
2018-09-09T02:59:50.528Z,7.40
2018-09-09T03:02:25.329Z,7.47
2018-09-09T03:05:00.879Z,6.63
2018-09-09T03:07:37.863Z,6.57
2018-09-09T03:10:20.283Z,7.87
2018-09-09T03:12:50.115Z,8.00
2018-09-09T03:15:21.975Z,7.40
2018-09-09T03:18:08.031Z,7.43
2018-09-09T03:20:37.815Z,7.23
2018-09-09T03:23:06.571Z,6.40
2018-09-09T03:25:53.635Z,6.78
2018-09-09T03:28:30.955Z,6.40
2018-09-09T03:31:09.439Z,6.78
2018-09-09T03:33:38.262Z,7.25
2018-09-09T03:36:23.831Z,7.20
2018-09-09T03:41:46.748Z,7.50
2018-09-09T03:44:30.022Z,7.40
2018-09-09T03:47:10.263Z,7.23
2018-09-09T03:49:39.096Z,7.28
2018-09-09T03:52:12.415Z,7.20
2018-09-09T03:54:48.680Z,7.83
2018-09-09T03:57:34.003Z,8.27
2018-09-09T04:00:06.823Z,8.80
2018-09-09T04:02:46.100Z,8.30
2018-09-09T04:05:31.169Z,8.18
2018-09-09T04:10:56.835Z,9.35
2018-09-09T04:16:26.475Z,9.23
2018-09-09T04:19:02.588Z,8.73
2018-09-09T04:21:36.003Z,9.85
2018-09-09T04:24:16.239Z,9.78
2018-09-09T04:26:45.931Z,9.93
2018-09-09T04:29:15.063Z,9.98
2018-09-09T04:31:48.280Z,9.43
2018-09-09T04:37:33.135Z,11.80
2018-09-09T04:40:15.527Z,11.48
2018-09-09T04:43:05.522Z,10.53
2018-09-09T04:45:39.984Z,10.08
2018-09-09T04:51:18.892Z,9.75
2018-09-09T04:53:49.660Z,11.05
2018-09-09T04:56:22.644Z,9.85
2018-09-09T04:59:04.695Z,9.60
2018-09-09T05:01:34.458Z,9.58
2018-09-09T05:04:24.287Z,10.30
2018-09-09T05:06:53.158Z,10.30
2018-09-09T05:09:30.029Z,10.55
2018-09-09T05:14:52.487Z,10.03
2018-09-09T05:17:36.864Z,9.80
2018-09-09T05:20:23.683Z,10.10
2018-09-09T05:23:08.563Z,9.30
2018-09-09T05:25:50.247Z,10.17
2018-09-09T05:28:20.096Z,9.60
2018-09-09T05:31:13.100Z,9.45
2018-09-09T05:33:50.371Z,9.80
2018-09-09T05:39:12.682Z,9.07
2018-09-09T05:41:41.495Z,9.27
2018-09-09T05:44:17.467Z,8.87
2018-09-09T05:46:58.270Z,8.60
2018-09-09T05:49:34.899Z,8.03
2018-09-09T05:52:04.667Z,7.80
2018-09-09T05:54:50.219Z,7.90
2018-09-09T06:00:13.215Z,8.80
2018-09-09T06:02:41.947Z,8.20
2018-09-09T06:05:11.715Z,7.90
2018-09-09T06:07:50.271Z,6.80
2018-09-09T06:10:30.091Z,8.10
2018-09-09T06:12:58.875Z,8.47
2018-09-09T06:15:32.363Z,7.40
2018-09-09T06:18:06.027Z,6.90
2018-09-09T06:20:41.664Z,6.90
2018-09-09T06:23:14.703Z,6.90
2018-09-09T06:25:51.179Z,7.30
2018-09-09T06:28:29.183Z,7.70
2018-09-09T06:31:10.071Z,7.80
2018-09-09T06:33:45.640Z,7.83
2018-09-09T06:36:21.714Z,8.00
2018-09-09T06:38:51.490Z,8.13
2018-09-09T06:41:26.363Z,8.23
2018-09-09T06:44:03.111Z,7.60
2018-09-09T06:46:42.863Z,7.93
2018-09-09T06:49:17.251Z,6.60
2018-09-09T06:51:51.519Z,7.07
2018-09-09T06:54:38.990Z,6.67
2018-09-09T06:57:13.363Z,6.10
2018-09-09T06:59:43.011Z,6.37
2018-09-09T07:02:22.935Z,7.03
2018-09-09T07:04:51.739Z,6.27
2018-09-09T07:07:31.431Z,7.23
2018-09-09T07:10:01.187Z,7.03
2018-09-09T07:12:40.220Z,6.43
2018-09-09T07:15:21.079Z,6.43
2018-09-09T07:17:57.923Z,6.27
2018-09-09T07:20:32.267Z,7.40
2018-09-09T07:23:10.759Z,7.40
2018-09-09T07:25:39.600Z,7.90
2018-09-09T07:28:12.075Z,7.30
2018-09-09T07:30:44.979Z,6.90
2018-09-09T07:33:38.271Z,8.70
2018-09-09T07:36:11.707Z,7.50
2018-09-09T07:38:45.635Z,7.90
2018-09-09T07:41:15.427Z,8.33
2018-09-09T07:43:47.300Z,8.57
2018-09-09T07:46:16.107Z,8.93
2018-09-09T07:48:50.107Z,7.87
2018-09-09T07:51:26.491Z,8.03
2018-09-09T07:54:03.180Z,9.40
2018-09-09T07:56:32.007Z,9.03
2018-09-09T07:59:07.623Z,8.23
2018-09-09T08:01:43.569Z,9.47
2018-09-09T08:04:31.095Z,9.27
2018-09-09T08:07:07.507Z,8.23
2018-09-09T08:09:39.400Z,10.17
2018-09-09T08:12:08.242Z,9.47
2018-09-09T08:14:43.755Z,9.20
2018-09-09T08:20:05.987Z,9.30
2018-09-09T08:22:46.856Z,8.70
2018-09-09T08:25:24.813Z,9.37
2018-09-09T08:27:59.155Z,9.00
2018-09-09T08:30:33.524Z,8.57
2018-09-09T08:33:05.951Z,9.60
2018-09-09T08:35:40.476Z,9.20
2018-09-09T08:38:15.595Z,8.70
2018-09-09T08:40:44.440Z,9.10
2018-09-09T08:43:16.348Z,10.00
2018-09-09T08:45:46.168Z,9.33
2018-09-09T08:48:33.467Z,9.40
2018-09-09T08:51:13.517Z,8.53
2018-09-09T08:53:42.347Z,8.37
2018-09-09T08:56:25.435Z,8.30
2018-09-09T08:58:59.359Z,9.00
2018-09-09T09:01:35.675Z,8.33
2018-09-09T09:04:05.459Z,9.20
2018-09-09T09:06:48.643Z,9.00
2018-09-09T09:09:19.383Z,8.70
2018-09-09T09:11:50.171Z,8.97
2018-09-09T09:14:28.664Z,8.60
2018-09-09T09:19:51.015Z,8.00
2018-09-09T09:22:20.855Z,8.70
2018-09-09T09:27:43.795Z,7.70
2018-09-09T09:30:14.610Z,8.67
2018-09-09T09:32:45.335Z,8.70
2018-09-09T09:35:26.404Z,7.97
2018-09-09T09:38:00.527Z,7.60
2018-09-09T09:40:36.847Z,8.90
2018-09-09T09:43:13.519Z,8.60
2018-09-09T09:45:42.423Z,8.03
2018-09-09T09:48:11.260Z,8.53
2018-09-09T09:50:41.091Z,7.67
2018-09-09T09:53:14.240Z,7.60
2018-09-09T09:55:43.044Z,7.40
2018-09-09T09:58:17.432Z,8.60
2018-09-09T10:01:04.644Z,7.93
2018-09-09T10:03:34.461Z,6.83
2018-09-09T10:06:08.451Z,7.40
2018-09-09T10:08:40.159Z,6.60
2018-09-09T10:11:09.959Z,7.47
2018-09-09T10:13:46.279Z,7.10
2018-09-09T10:16:19.543Z,6.43
2018-09-09T10:18:50.356Z,5.70
2018-09-09T10:21:19.143Z,6.20
2018-09-09T10:23:53.121Z,5.53
2018-09-09T10:26:24.923Z,5.10
2018-09-09T10:28:53.716Z,5.43
2018-09-09T10:31:30.023Z,5.47
2018-09-09T10:33:59.814Z,6.00
2018-09-09T10:36:43.288Z,5.27
2018-09-09T10:39:16.915Z,5.67
2018-09-09T10:41:48.795Z,6.20
2018-09-09T10:44:24.099Z,6.63
2018-09-09T10:46:52.975Z,6.70
2018-09-09T10:49:22.886Z,6.70
2018-09-09T10:51:51.611Z,6.37
2018-09-09T10:54:26.023Z,5.83
2018-09-09T10:56:55.839Z,5.50
2018-09-09T10:59:30.095Z,5.53
2018-09-09T11:01:59.813Z,6.13
2018-09-09T11:04:28.636Z,5.90
2018-09-09T11:06:59.397Z,5.53
2018-09-09T11:09:28.131Z,5.73
2018-09-09T11:11:57.887Z,5.50
2018-09-09T11:14:28.739Z,5.70
2018-09-09T11:16:57.491Z,5.60
2018-09-09T11:19:36.591Z,6.20
2018-09-09T11:22:06.369Z,6.03
2018-09-09T11:24:35.140Z,6.07
2018-09-09T11:27:14.219Z,5.50
2018-09-09T11:29:43.431Z,5.07
2018-09-09T11:32:12.265Z,5.70
2018-09-09T11:34:48.801Z,5.13
2018-09-09T11:37:17.615Z,4.60
2018-09-09T11:39:47.336Z,4.27
2018-09-09T11:42:17.206Z,4.47
2018-09-09T11:44:46.035Z,4.60
2018-09-09T11:47:15.815Z,4.53
2018-09-09T11:49:49.447Z,4.67
2018-09-09T11:52:21.372Z,3.90
2018-09-09T11:54:50.203Z,3.47
2018-09-09T11:57:26.224Z,3.70
2018-09-09T12:00:06.324Z,4.07
2018-09-09T12:02:35.087Z,3.73
2018-09-09T12:05:03.803Z,4.00
2018-09-09T12:07:38.677Z,3.60
2018-09-09T12:10:23.771Z,3.67
2018-09-09T12:12:54.474Z,3.60
2018-09-09T12:15:25.243Z,4.00
2018-09-09T12:17:55.039Z,3.53
2018-09-09T12:20:35.839Z,4.13
2018-09-09T12:23:19.058Z,3.90
2018-09-09T12:25:49.967Z,3.67
2018-09-09T12:28:24.655Z,3.23
2018-09-09T12:30:55.367Z,3.00
2018-09-09T12:33:24.110Z,3.50
2018-09-09T12:35:54.776Z,2.80
2018-09-09T12:38:24.753Z,2.70
2018-09-09T12:40:59.311Z,3.40
2018-09-09T12:43:35.615Z,3.10
2018-09-09T12:46:09.816Z,2.73
2018-09-09T12:48:49.387Z,2.67
2018-09-09T12:51:28.283Z,2.87
2018-09-09T12:53:57.555Z,3.30
2018-09-09T12:56:45.303Z,2.63
2018-09-09T12:59:34.231Z,3.10
2018-09-09T13:02:06.867Z,2.90
2018-09-09T13:04:35.607Z,3.10
2018-09-09T13:07:05.439Z,2.90
2018-09-09T13:09:34.203Z,2.90
2018-09-09T13:12:26.041Z,3.10
2018-09-09T13:14:56.766Z,3.03
2018-09-09T13:17:25.547Z,2.60
2018-09-09T13:19:57.991Z,3.00
2018-09-09T13:22:40.816Z,2.67
2018-09-09T13:25:15.262Z,3.07
2018-09-09T13:27:58.423Z,2.53
2018-09-09T13:30:27.255Z,3.40
2018-09-09T13:32:58.003Z,2.80
2018-09-09T13:35:43.751Z,3.50
2018-09-09T13:38:23.915Z,2.80
2018-09-09T13:40:52.768Z,3.67
2018-09-09T13:43:22.542Z,3.43
2018-09-09T13:45:53.350Z,3.50
2018-09-09T13:48:26.141Z,4.67
2018-09-09T13:50:54.793Z,3.90
2018-09-09T13:53:41.715Z,3.57
2018-09-09T13:56:22.979Z,2.60
2018-09-09T13:58:51.816Z,3.10
2018-09-09T14:01:20.563Z,3.50
2018-09-09T14:03:49.336Z,3.67
2018-09-09T14:06:21.862Z,3.40
2018-09-09T14:08:50.584Z,3.30
2018-09-09T14:11:19.411Z,3.23
2018-09-09T14:13:48.171Z,2.63
2018-09-09T14:16:21.605Z,3.30
2018-09-09T14:18:50.335Z,3.10
2018-09-09T14:21:21.039Z,3.20
2018-09-09T14:23:49.775Z,3.50
2018-09-09T14:26:21.883Z,2.47
2018-09-09T14:28:52.651Z,3.30
2018-09-09T14:31:23.367Z,3.13
2018-09-09T14:33:52.167Z,3.40
2018-09-09T14:36:26.711Z,2.83
2018-09-09T14:38:58.962Z,3.10
2018-09-09T14:41:29.771Z,2.60
2018-09-09T14:44:17.659Z,2.90
2018-09-09T14:46:46.486Z,2.60
2018-09-09T14:49:21.274Z,3.17
2018-09-09T14:51:49.995Z,3.03
2018-09-09T14:54:23.454Z,2.87
2018-09-09T14:56:52.203Z,2.77
2018-09-09T14:59:32.938Z,3.33
2018-09-09T15:02:01.682Z,3.07
2018-09-09T15:04:31.410Z,2.77
2018-09-09T15:07:04.583Z,2.63
2018-09-09T15:09:47.110Z,3.17
2018-09-09T15:12:17.900Z,2.80
2018-09-09T15:14:47.634Z,2.70
2018-09-09T15:17:16.484Z,3.33
2018-09-09T15:19:48.866Z,2.70
2018-09-09T15:22:23.137Z,3.00
2018-09-09T15:24:51.967Z,2.50
2018-09-09T15:27:21.706Z,2.60
2018-09-09T15:30:00.526Z,3.10
2018-09-09T15:32:29.241Z,4.07
2018-09-09T15:34:58.074Z,2.50
2018-09-09T15:37:28.806Z,3.73
2018-09-09T15:40:01.404Z,2.90
2018-09-09T15:42:31.194Z,3.40
2018-09-09T15:45:03.469Z,2.87
2018-09-09T15:47:34.246Z,3.40
2018-09-09T15:50:04.959Z,2.90
2018-09-09T15:52:37.434Z,2.80
2018-09-09T15:55:16.790Z,2.50
2018-09-09T15:57:45.585Z,2.70
2018-09-09T16:00:15.329Z,2.90
2018-09-09T16:02:46.130Z,3.00
2018-09-09T16:05:15.774Z,2.50
2018-09-09T16:07:48.685Z,2.80
2018-09-09T16:10:18.482Z,2.97
2018-09-09T16:12:48.385Z,3.13
2018-09-09T16:15:20.128Z,2.80
2018-09-09T16:17:48.870Z,3.50
2018-09-09T16:20:18.662Z,2.93
2018-09-09T16:22:48.394Z,2.43
2018-09-09T16:25:18.166Z,3.00
2018-09-09T16:27:47.898Z,3.10
2018-09-09T16:30:16.646Z,4.53
2018-09-09T16:32:49.254Z,2.60
2018-09-09T16:35:21.910Z,2.80
2018-09-09T16:37:50.738Z,3.20
2018-09-09T16:40:30.047Z,3.20
2018-09-09T16:42:58.762Z,3.10
2018-09-09T16:45:28.538Z,2.40
2018-09-09T16:47:57.250Z,2.47
2018-09-09T16:50:26.015Z,2.80
2018-09-09T16:52:54.886Z,3.20
2018-09-09T16:55:26.954Z,2.90
2018-09-09T16:57:56.790Z,2.70
2018-09-09T17:00:26.579Z,2.47
2018-09-09T17:02:55.375Z,3.03
2018-09-09T17:05:27.287Z,3.10
2018-09-09T17:08:07.898Z,2.70
2018-09-09T17:13:10.862Z,2.63
2018-09-09T17:15:39.700Z,3.17
2018-09-09T17:18:08.517Z,2.60
2018-09-09T17:20:47.043Z,2.90
2018-09-09T17:23:15.782Z,2.63
2018-09-09T17:25:46.522Z,3.60
2018-09-09T17:28:15.315Z,2.90
2018-09-09T17:30:44.098Z,2.93
2018-09-09T17:33:13.815Z,3.17
2018-09-09T17:35:42.603Z,3.87
2018-09-09T17:38:14.754Z,3.30
2018-09-09T17:40:53.230Z,3.10
2018-09-09T17:43:22.982Z,3.77
2018-09-09T17:46:02.082Z,3.03
2018-09-09T17:48:49.374Z,3.70
2018-09-09T17:51:25.520Z,3.57
2018-09-09T17:53:55.322Z,3.77
2018-09-09T17:56:34.426Z,3.23
2018-09-09T17:59:19.884Z,3.70
2018-09-09T18:01:50.666Z,3.53
2018-09-09T18:04:37.215Z,3.50
2018-09-09T18:07:06.050Z,3.87
2018-09-09T18:09:39.753Z,4.50
2018-09-09T18:12:08.556Z,4.43
2018-09-09T18:14:37.322Z,4.93
2018-09-09T18:17:10.362Z,4.27
2018-09-09T18:19:39.198Z,4.33
2018-09-09T18:22:12.914Z,5.27
2018-09-09T18:24:44.766Z,4.17
2018-09-09T18:27:14.919Z,5.13
2018-09-09T18:29:44.117Z,4.57
2018-09-09T18:32:20.898Z,4.70
2018-09-09T18:34:50.685Z,4.87
2018-09-09T18:37:20.826Z,4.03
2018-09-09T18:39:51.622Z,3.60
2018-09-09T18:42:23.498Z,4.00
2018-09-09T18:44:52.323Z,4.23
2018-09-09T18:47:21.098Z,4.90
2018-09-09T18:49:51.888Z,6.07
2018-09-09T18:52:39.578Z,5.40
2018-09-09T18:55:21.279Z,4.30
2018-09-09T18:57:52.334Z,4.93
2018-09-09T19:00:26.983Z,4.70
2018-09-09T19:03:00.778Z,4.77
2018-09-09T19:05:45.602Z,5.20
2018-09-09T19:08:15.355Z,4.30
2018-09-09T19:10:44.138Z,5.10
2018-09-09T19:13:22.590Z,4.67
2018-09-09T19:15:55.086Z,5.50
2018-09-09T19:18:25.867Z,4.63
2018-09-09T19:21:11.540Z,5.37
2018-09-09T19:23:41.255Z,4.83
2018-09-09T19:26:16.816Z,5.20
2018-09-09T19:28:45.652Z,5.23
2018-09-09T19:31:20.208Z,5.37
2018-09-09T19:36:46.975Z,5.90
2018-09-09T19:39:28.527Z,5.73
2018-09-09T19:41:59.326Z,5.63
2018-09-09T19:44:29.110Z,6.00
2018-09-09T19:47:02.914Z,6.00
2018-09-09T19:49:37.391Z,4.70
2018-09-09T19:52:06.902Z,5.00
2018-09-09T19:54:36.654Z,5.20
2018-09-09T19:57:10.261Z,5.47
2018-09-09T19:59:44.258Z,6.10
2018-09-09T20:02:14.095Z,5.70
2018-09-09T20:04:42.861Z,4.70
2018-09-09T20:07:16.066Z,4.50
2018-09-09T20:09:45.890Z,5.03
2018-09-09T20:12:20.639Z,5.83
2018-09-09T20:15:02.462Z,5.57
2018-09-09T20:17:40.774Z,5.57
2018-09-09T20:20:13.806Z,4.77
2018-09-09T20:22:42.789Z,5.17
2018-09-09T20:25:35.676Z,5.10
2018-09-09T20:28:04.774Z,4.20
2018-09-09T20:30:33.502Z,4.50
2018-09-09T20:33:02.294Z,4.77
2018-09-09T20:35:32.134Z,4.10
2018-09-09T20:38:12.517Z,3.67
2018-09-09T20:40:45.858Z,4.80
2018-09-09T20:43:24.310Z,4.70
2018-09-09T20:45:56.553Z,4.10
2018-09-09T20:48:36.326Z,4.90
2018-09-09T20:51:10.406Z,4.70
2018-09-09T20:53:39.186Z,4.90
2018-09-09T20:56:14.566Z,5.40
2018-09-09T20:58:47.118Z,4.90
2018-09-09T21:01:15.897Z,4.60
2018-09-09T21:03:47.986Z,5.23
2018-09-09T21:06:32.442Z,4.73
2018-09-09T21:09:12.437Z,5.60
2018-09-09T21:11:47.842Z,6.70
2018-09-09T21:14:17.637Z,6.10
2018-09-09T21:17:01.940Z,7.33
2018-09-09T21:19:36.221Z,6.97
2018-09-09T21:22:12.189Z,7.30
2018-09-09T21:24:41.226Z,5.40
2018-09-09T21:27:24.460Z,5.10
2018-09-09T21:29:53.413Z,6.00
2018-09-09T21:32:23.248Z,5.67
2018-09-09T21:34:54.253Z,5.67
2018-09-09T21:37:23.109Z,5.40
2018-09-09T21:39:51.885Z,5.50
2018-09-09T21:42:26.874Z,5.50
2018-09-09T21:44:56.630Z,5.83
2018-09-09T21:47:25.666Z,5.50
2018-09-09T21:49:55.450Z,6.37
2018-09-09T21:52:36.230Z,5.50
2018-09-09T21:55:10.668Z,6.47
2018-09-09T21:57:45.878Z,6.00
2018-09-09T22:00:15.670Z,5.70
2018-09-09T22:02:50.302Z,5.93
2018-09-09T22:05:20.110Z,6.13
2018-09-09T22:07:49.250Z,6.63
2018-09-09T22:10:18.026Z,6.77
2018-09-09T22:12:46.726Z,6.50
2018-09-09T22:15:20.442Z,7.67
2018-09-09T22:17:50.182Z,6.70
2018-09-09T22:20:37.362Z,8.17
2018-09-09T22:23:06.213Z,6.60
2018-09-09T22:25:37.594Z,7.33
2018-09-09T22:28:06.973Z,7.30
2018-09-09T22:30:46.009Z,6.50
2018-09-09T22:33:14.797Z,6.70
2018-09-09T22:35:47.147Z,6.43
2018-09-09T22:38:16.093Z,6.00
2018-09-09T22:40:46.896Z,7.30
2018-09-09T22:43:16.675Z,6.60
2018-09-09T22:45:48.701Z,6.63
2018-09-09T22:48:20.353Z,6.03
2018-09-09T22:50:51.117Z,7.07
2018-09-09T22:53:25.505Z,7.10
2018-09-09T22:55:56.201Z,6.67
2018-09-09T22:58:37.101Z,6.43
2018-09-09T23:01:13.441Z,7.67
2018-09-09T23:03:42.189Z,7.03
2018-09-09T23:06:15.901Z,7.80
2018-09-09T23:08:49.729Z,7.40
2018-09-09T23:11:30.681Z,6.97
2018-09-09T23:14:02.641Z,7.50
2018-09-09T23:16:42.949Z,7.13
2018-09-09T23:19:12.716Z,7.20
2018-09-09T23:21:41.498Z,7.60
2018-09-09T23:24:12.321Z,8.88
2018-09-09T23:26:45.841Z,8.30
2018-09-09T23:29:25.105Z,8.90
2018-09-09T23:31:54.097Z,8.27
2018-09-09T23:34:27.449Z,8.40
2018-09-09T23:36:58.090Z,8.83
2018-09-09T23:39:36.825Z,8.70
2018-09-09T23:42:22.173Z,9.10
2018-09-09T23:45:07.216Z,8.90
2018-09-09T23:47:38.005Z,9.30
2018-09-09T23:50:26.081Z,8.23
2018-09-09T23:53:03.293Z,8.70
2018-09-09T23:55:34.066Z,8.93
2018-09-09T23:58:08.825Z,8.17
